sensor_id;sensor_type;location;lat;lon;timestamp;P1;durP1;ratioP1;P2;durP2;ratioP2
44919;SDS011;30655;53.094;6.072;2023-02-07T00:01:24;13.40;;;5.25;;
44919;SDS011;30655;53.094;6.072;2023-02-07T00:03:51;14.65;;;5.20;;
44919;SDS011;30655;53.094;6.072;2023-02-07T00:06:31;17.25;;;5.50;;
44919;SDS011;30655;53.094;6.072;2023-02-07T00:09:14;19.42;;;5.75;;
44919;SDS011;30655;53.094;6.072;2023-02-07T00:11:42;20.13;;;5.93;;
44919;SDS011;30655;53.094;6.072;2023-02-07T00:14:09;24.33;;;5.43;;
44919;SDS011;30655;53.094;6.072;2023-02-07T00:16:38;14.98;;;4.57;;
44919;SDS011;30655;53.094;6.072;2023-02-07T00:19:05;16.27;;;5.40;;
44919;SDS011;30655;53.094;6.072;2023-02-07T00:21:34;27.85;;;6.40;;
44919;SDS011;30655;53.094;6.072;2023-02-07T00:24:01;31.15;;;5.85;;
44919;SDS011;30655;53.094;6.072;2023-02-07T00:26:28;21.20;;;5.35;;
44919;SDS011;30655;53.094;6.072;2023-02-07T00:28:55;12.13;;;5.47;;
44919;SDS011;30655;53.094;6.072;2023-02-07T00:31:23;20.30;;;6.80;;
44919;SDS011;30655;53.094;6.072;2023-02-07T00:33:53;14.40;;;5.28;;
44919;SDS011;30655;53.094;6.072;2023-02-07T00:36:22;16.90;;;5.55;;
44919;SDS011;30655;53.094;6.072;2023-02-07T00:38:54;23.85;;;5.68;;
44919;SDS011;30655;53.094;6.072;2023-02-07T00:41:21;17.57;;;5.07;;
44919;SDS011;30655;53.094;6.072;2023-02-07T00:43:48;23.85;;;5.53;;
44919;SDS011;30655;53.094;6.072;2023-02-07T00:46:15;10.82;;;4.97;;
44919;SDS011;30655;53.094;6.072;2023-02-07T00:48:42;28.10;;;7.05;;
44919;SDS011;30655;53.094;6.072;2023-02-07T00:51:10;25.33;;;4.97;;
44919;SDS011;30655;53.094;6.072;2023-02-07T00:53:38;20.73;;;5.35;;
44919;SDS011;30655;53.094;6.072;2023-02-07T00:56:07;21.48;;;5.20;;
44919;SDS011;30655;53.094;6.072;2023-02-07T00:58:35;16.02;;;5.32;;
44919;SDS011;30655;53.094;6.072;2023-02-07T01:01:02;24.73;;;6.15;;
44919;SDS011;30655;53.094;6.072;2023-02-07T01:03:30;12.18;;;5.13;;
44919;SDS011;30655;53.094;6.072;2023-02-07T01:05:57;14.15;;;5.70;;
44919;SDS011;30655;53.094;6.072;2023-02-07T01:08:24;13.98;;;4.97;;
44919;SDS011;30655;53.094;6.072;2023-02-07T01:10:50;20.17;;;5.97;;
44919;SDS011;30655;53.094;6.072;2023-02-07T01:13:21;16.23;;;5.47;;
44919;SDS011;30655;53.094;6.072;2023-02-07T01:15:50;23.58;;;6.45;;
44919;SDS011;30655;53.094;6.072;2023-02-07T01:18:18;16.17;;;5.88;;
44919;SDS011;30655;53.094;6.072;2023-02-07T01:20:47;19.13;;;7.47;;
44919;SDS011;30655;53.094;6.072;2023-02-07T01:23:17;24.50;;;7.07;;
44919;SDS011;30655;53.094;6.072;2023-02-07T01:25:44;12.77;;;6.38;;
44919;SDS011;30655;53.094;6.072;2023-02-07T01:28:11;28.48;;;8.40;;
44919;SDS011;30655;53.094;6.072;2023-02-07T01:30:40;16.42;;;6.57;;
44919;SDS011;30655;53.094;6.072;2023-02-07T01:33:09;27.88;;;6.22;;
44919;SDS011;30655;53.094;6.072;2023-02-07T01:35:36;22.13;;;6.18;;
44919;SDS011;30655;53.094;6.072;2023-02-07T01:38:04;29.50;;;7.43;;
44919;SDS011;30655;53.094;6.072;2023-02-07T01:40:31;21.23;;;7.15;;
44919;SDS011;30655;53.094;6.072;2023-02-07T01:43:02;16.95;;;6.45;;
44919;SDS011;30655;53.094;6.072;2023-02-07T01:45:31;19.13;;;6.90;;
44919;SDS011;30655;53.094;6.072;2023-02-07T01:48:04;19.20;;;6.47;;
44919;SDS011;30655;53.094;6.072;2023-02-07T01:50:33;16.38;;;6.10;;
44919;SDS011;30655;53.094;6.072;2023-02-07T01:53:05;12.80;;;6.50;;
44919;SDS011;30655;53.094;6.072;2023-02-07T01:55:34;27.63;;;7.28;;
44919;SDS011;30655;53.094;6.072;2023-02-07T01:58:07;15.60;;;6.55;;
44919;SDS011;30655;53.094;6.072;2023-02-07T02:00:34;24.45;;;7.85;;
44919;SDS011;30655;53.094;6.072;2023-02-07T02:03:10;23.75;;;8.18;;
44919;SDS011;30655;53.094;6.072;2023-02-07T02:05:37;16.60;;;7.22;;
44919;SDS011;30655;53.094;6.072;2023-02-07T02:08:06;19.13;;;7.88;;
44919;SDS011;30655;53.094;6.072;2023-02-07T02:10:40;22.80;;;8.15;;
44919;SDS011;30655;53.094;6.072;2023-02-07T02:13:20;21.80;;;6.97;;
44919;SDS011;30655;53.094;6.072;2023-02-07T02:15:55;17.23;;;6.85;;
44919;SDS011;30655;53.094;6.072;2023-02-07T02:18:32;26.92;;;8.70;;
44919;SDS011;30655;53.094;6.072;2023-02-07T02:27:39;19.85;;;8.02;;
44919;SDS011;30655;53.094;6.072;2023-02-07T02:33:41;22.15;;;7.53;;
44919;SDS011;30655;53.094;6.072;2023-02-07T02:36:16;24.23;;;7.75;;
44919;SDS011;30655;53.094;6.072;2023-02-07T02:38:51;12.80;;;7.85;;
44919;SDS011;30655;53.094;6.072;2023-02-07T02:41:24;18.70;;;7.47;;
44919;SDS011;30655;53.094;6.072;2023-02-07T02:43:56;15.20;;;7.45;;
44919;SDS011;30655;53.094;6.072;2023-02-07T02:48:57;19.15;;;7.82;;
44919;SDS011;30655;53.094;6.072;2023-02-07T02:51:27;18.60;;;8.23;;
44919;SDS011;30655;53.094;6.072;2023-02-07T02:53:54;31.17;;;10.23;;
44919;SDS011;30655;53.094;6.072;2023-02-07T02:56:34;30.30;;;9.25;;
44919;SDS011;30655;53.094;6.072;2023-02-07T03:02:19;24.20;;;10.50;;
44919;SDS011;30655;53.094;6.072;2023-02-07T03:08:01;30.02;;;10.68;;
44919;SDS011;30655;53.094;6.072;2023-02-07T03:10:37;25.13;;;9.80;;
44919;SDS011;30655;53.094;6.072;2023-02-07T03:13:13;26.20;;;10.65;;
44919;SDS011;30655;53.094;6.072;2023-02-07T03:15:49;31.30;;;11.52;;
44919;SDS011;30655;53.094;6.072;2023-02-07T03:18:25;26.77;;;11.63;;
44919;SDS011;30655;53.094;6.072;2023-02-07T03:20:59;22.10;;;11.00;;
44919;SDS011;30655;53.094;6.072;2023-02-07T03:23:29;27.30;;;11.00;;
44919;SDS011;30655;53.094;6.072;2023-02-07T03:26:03;22.55;;;10.88;;
44919;SDS011;30655;53.094;6.072;2023-02-07T03:28:32;21.48;;;10.82;;
44919;SDS011;30655;53.094;6.072;2023-02-07T03:31:01;26.50;;;11.07;;
44919;SDS011;30655;53.094;6.072;2023-02-07T03:33:32;29.80;;;13.23;;
44919;SDS011;30655;53.094;6.072;2023-02-07T03:36:01;24.17;;;11.88;;
44919;SDS011;30655;53.094;6.072;2023-02-07T03:38:34;30.77;;;14.70;;
44919;SDS011;30655;53.094;6.072;2023-02-07T03:41:04;37.75;;;13.88;;
44919;SDS011;30655;53.094;6.072;2023-02-07T03:43:35;34.28;;;15.02;;
44919;SDS011;30655;53.094;6.072;2023-02-07T03:46:06;40.20;;;15.40;;
44919;SDS011;30655;53.094;6.072;2023-02-07T03:48:33;37.20;;;16.23;;
44919;SDS011;30655;53.094;6.072;2023-02-07T03:51:02;37.58;;;17.58;;
44919;SDS011;30655;53.094;6.072;2023-02-07T03:53:29;30.92;;;15.65;;
44919;SDS011;30655;53.094;6.072;2023-02-07T03:55:56;29.23;;;15.13;;
44919;SDS011;30655;53.094;6.072;2023-02-07T03:58:23;31.40;;;15.23;;
44919;SDS011;30655;53.094;6.072;2023-02-07T04:00:50;39.47;;;17.73;;
44919;SDS011;30655;53.094;6.072;2023-02-07T04:03:17;30.77;;;14.63;;
44919;SDS011;30655;53.094;6.072;2023-02-07T04:05:47;35.00;;;15.98;;
44919;SDS011;30655;53.094;6.072;2023-02-07T04:08:15;32.75;;;14.70;;
44919;SDS011;30655;53.094;6.072;2023-02-07T04:10:42;30.00;;;15.25;;
44919;SDS011;30655;53.094;6.072;2023-02-07T04:13:09;33.22;;;15.80;;
44919;SDS011;30655;53.094;6.072;2023-02-07T04:15:36;38.35;;;16.63;;
44919;SDS011;30655;53.094;6.072;2023-02-07T04:18:03;33.35;;;16.23;;
44919;SDS011;30655;53.094;6.072;2023-02-07T04:20:30;32.60;;;15.90;;
44919;SDS011;30655;53.094;6.072;2023-02-07T04:22:57;34.72;;;15.65;;
44919;SDS011;30655;53.094;6.072;2023-02-07T04:25:26;37.45;;;16.20;;
44919;SDS011;30655;53.094;6.072;2023-02-07T04:27:53;38.65;;;16.10;;
44919;SDS011;30655;53.094;6.072;2023-02-07T04:30:19;39.58;;;17.50;;
44919;SDS011;30655;53.094;6.072;2023-02-07T04:32:46;31.00;;;15.63;;
44919;SDS011;30655;53.094;6.072;2023-02-07T04:35:13;43.40;;;18.75;;
44919;SDS011;30655;53.094;6.072;2023-02-07T04:37:40;47.15;;;18.13;;
44919;SDS011;30655;53.094;6.072;2023-02-07T04:40:08;39.15;;;17.27;;
44919;SDS011;30655;53.094;6.072;2023-02-07T04:42:37;57.28;;;17.90;;
44919;SDS011;30655;53.094;6.072;2023-02-07T04:45:04;39.50;;;17.65;;
44919;SDS011;30655;53.094;6.072;2023-02-07T04:47:31;40.50;;;18.77;;
44919;SDS011;30655;53.094;6.072;2023-02-07T04:49:58;42.38;;;18.88;;
44919;SDS011;30655;53.094;6.072;2023-02-07T04:52:28;44.10;;;18.98;;
44919;SDS011;30655;53.094;6.072;2023-02-07T04:54:55;38.08;;;18.27;;
44919;SDS011;30655;53.094;6.072;2023-02-07T04:57:24;40.00;;;19.15;;
44919;SDS011;30655;53.094;6.072;2023-02-07T04:59:52;44.42;;;19.52;;
44919;SDS011;30655;53.094;6.072;2023-02-07T05:02:20;39.65;;;19.35;;
44919;SDS011;30655;53.094;6.072;2023-02-07T05:04:47;46.83;;;21.10;;
44919;SDS011;30655;53.094;6.072;2023-02-07T05:07:14;44.00;;;20.00;;
44919;SDS011;30655;53.094;6.072;2023-02-07T05:09:42;50.13;;;20.67;;
44919;SDS011;30655;53.094;6.072;2023-02-07T05:12:08;49.97;;;19.58;;
44919;SDS011;30655;53.094;6.072;2023-02-07T05:14:35;45.55;;;19.98;;
44919;SDS011;30655;53.094;6.072;2023-02-07T05:17:03;41.28;;;20.05;;
44919;SDS011;30655;53.094;6.072;2023-02-07T05:19:30;45.97;;;20.02;;
44919;SDS011;30655;53.094;6.072;2023-02-07T05:21:57;42.15;;;18.90;;
44919;SDS011;30655;53.094;6.072;2023-02-07T05:24:24;45.70;;;20.70;;
44919;SDS011;30655;53.094;6.072;2023-02-07T05:26:51;39.85;;;18.90;;
44919;SDS011;30655;53.094;6.072;2023-02-07T05:29:20;43.42;;;17.95;;
44919;SDS011;30655;53.094;6.072;2023-02-07T05:31:47;37.03;;;19.08;;
44919;SDS011;30655;53.094;6.072;2023-02-07T05:34:16;35.30;;;17.60;;
44919;SDS011;30655;53.094;6.072;2023-02-07T05:36:43;34.92;;;17.83;;
44919;SDS011;30655;53.094;6.072;2023-02-07T05:39:10;38.95;;;17.42;;
44919;SDS011;30655;53.094;6.072;2023-02-07T05:41:37;36.88;;;17.55;;
44919;SDS011;30655;53.094;6.072;2023-02-07T05:44:04;41.67;;;19.13;;
44919;SDS011;30655;53.094;6.072;2023-02-07T05:46:31;33.17;;;17.45;;
44919;SDS011;30655;53.094;6.072;2023-02-07T05:48:58;40.03;;;18.58;;
44919;SDS011;30655;53.094;6.072;2023-02-07T05:51:26;28.92;;;16.85;;
44919;SDS011;30655;53.094;6.072;2023-02-07T05:53:53;40.00;;;17.73;;
44919;SDS011;30655;53.094;6.072;2023-02-07T05:56:20;27.90;;;15.70;;
44919;SDS011;30655;53.094;6.072;2023-02-07T05:58:47;30.55;;;15.90;;
44919;SDS011;30655;53.094;6.072;2023-02-07T06:01:13;26.98;;;15.82;;
44919;SDS011;30655;53.094;6.072;2023-02-07T06:03:40;29.35;;;16.48;;
44919;SDS011;30655;53.094;6.072;2023-02-07T06:06:08;30.13;;;15.90;;
44919;SDS011;30655;53.094;6.072;2023-02-07T06:08:36;33.15;;;16.48;;
44919;SDS011;30655;53.094;6.072;2023-02-07T06:11:03;32.28;;;16.52;;
44919;SDS011;30655;53.094;6.072;2023-02-07T06:13:30;32.42;;;16.70;;
44919;SDS011;30655;53.094;6.072;2023-02-07T06:15:57;29.30;;;14.88;;
44919;SDS011;30655;53.094;6.072;2023-02-07T06:18:24;27.85;;;15.32;;
44919;SDS011;30655;53.094;6.072;2023-02-07T06:20:51;29.23;;;15.90;;
44919;SDS011;30655;53.094;6.072;2023-02-07T06:23:20;32.20;;;17.27;;
44919;SDS011;30655;53.094;6.072;2023-02-07T06:25:51;39.53;;;17.50;;
44919;SDS011;30655;53.094;6.072;2023-02-07T06:28:22;33.60;;;18.15;;
44919;SDS011;30655;53.094;6.072;2023-02-07T06:30:52;35.42;;;18.65;;
44919;SDS011;30655;53.094;6.072;2023-02-07T06:33:20;38.33;;;20.38;;
44919;SDS011;30655;53.094;6.072;2023-02-07T06:35:50;42.17;;;20.40;;
44919;SDS011;30655;53.094;6.072;2023-02-07T06:38:16;49.58;;;21.75;;
44919;SDS011;30655;53.094;6.072;2023-02-07T06:40:44;47.70;;;20.48;;
44919;SDS011;30655;53.094;6.072;2023-02-07T06:43:13;51.65;;;21.05;;
44919;SDS011;30655;53.094;6.072;2023-02-07T06:45:41;47.70;;;21.25;;
44919;SDS011;30655;53.094;6.072;2023-02-07T06:48:08;49.75;;;21.90;;
44919;SDS011;30655;53.094;6.072;2023-02-07T06:50:36;49.42;;;21.45;;
44919;SDS011;30655;53.094;6.072;2023-02-07T06:53:03;43.22;;;19.92;;
44919;SDS011;30655;53.094;6.072;2023-02-07T06:55:31;41.97;;;20.77;;
44919;SDS011;30655;53.094;6.072;2023-02-07T06:58:02;51.08;;;22.20;;
44919;SDS011;30655;53.094;6.072;2023-02-07T07:00:35;46.47;;;21.73;;
44919;SDS011;30655;53.094;6.072;2023-02-07T07:03:02;48.13;;;21.90;;
44919;SDS011;30655;53.094;6.072;2023-02-07T07:05:32;47.58;;;21.08;;
44919;SDS011;30655;53.094;6.072;2023-02-07T07:07:59;43.90;;;21.98;;
44919;SDS011;30655;53.094;6.072;2023-02-07T07:10:25;54.60;;;22.38;;
44919;SDS011;30655;53.094;6.072;2023-02-07T07:12:55;46.97;;;22.13;;
44919;SDS011;30655;53.094;6.072;2023-02-07T07:15:22;47.40;;;21.35;;
44919;SDS011;30655;53.094;6.072;2023-02-07T07:17:51;49.95;;;22.15;;
44919;SDS011;30655;53.094;6.072;2023-02-07T07:20:18;48.78;;;22.27;;
44919;SDS011;30655;53.094;6.072;2023-02-07T07:22:45;38.33;;;20.77;;
44919;SDS011;30655;53.094;6.072;2023-02-07T07:25:12;40.55;;;21.00;;
44919;SDS011;30655;53.094;6.072;2023-02-07T07:27:38;47.65;;;22.75;;
44919;SDS011;30655;53.094;6.072;2023-02-07T07:30:05;46.35;;;22.02;;
44919;SDS011;30655;53.094;6.072;2023-02-07T07:32:36;53.15;;;22.27;;
44919;SDS011;30655;53.094;6.072;2023-02-07T07:35:04;40.42;;;21.48;;
44919;SDS011;30655;53.094;6.072;2023-02-07T07:37:32;45.17;;;20.75;;
44919;SDS011;30655;53.094;6.072;2023-02-07T07:39:59;45.47;;;21.63;;
44919;SDS011;30655;53.094;6.072;2023-02-07T07:42:26;42.10;;;21.27;;
44919;SDS011;30655;53.094;6.072;2023-02-07T07:44:53;48.00;;;22.85;;
44919;SDS011;30655;53.094;6.072;2023-02-07T07:47:19;46.00;;;22.30;;
44919;SDS011;30655;53.094;6.072;2023-02-07T07:49:46;41.78;;;20.42;;
44919;SDS011;30655;53.094;6.072;2023-02-07T07:52:16;40.85;;;21.73;;
44919;SDS011;30655;53.094;6.072;2023-02-07T07:54:43;41.33;;;21.65;;
44919;SDS011;30655;53.094;6.072;2023-02-07T07:57:10;47.85;;;23.15;;
44919;SDS011;30655;53.094;6.072;2023-02-07T07:59:37;46.35;;;22.00;;
44919;SDS011;30655;53.094;6.072;2023-02-07T08:02:04;42.85;;;21.42;;
44919;SDS011;30655;53.094;6.072;2023-02-07T08:04:32;48.70;;;22.75;;
44919;SDS011;30655;53.094;6.072;2023-02-07T08:06:59;53.05;;;22.70;;
44919;SDS011;30655;53.094;6.072;2023-02-07T08:09:27;44.58;;;21.83;;
44919;SDS011;30655;53.094;6.072;2023-02-07T08:11:54;42.20;;;21.63;;
44919;SDS011;30655;53.094;6.072;2023-02-07T08:14:23;42.28;;;22.25;;
44919;SDS011;30655;53.094;6.072;2023-02-07T08:16:50;45.33;;;23.27;;
44919;SDS011;30655;53.094;6.072;2023-02-07T08:19:17;49.10;;;22.90;;
44919;SDS011;30655;53.094;6.072;2023-02-07T08:21:46;47.00;;;24.25;;
44919;SDS011;30655;53.094;6.072;2023-02-07T08:24:13;48.58;;;23.08;;
44919;SDS011;30655;53.094;6.072;2023-02-07T08:26:42;49.78;;;23.67;;
44919;SDS011;30655;53.094;6.072;2023-02-07T08:29:09;52.53;;;24.92;;
44919;SDS011;30655;53.094;6.072;2023-02-07T08:31:36;48.95;;;24.85;;
44919;SDS011;30655;53.094;6.072;2023-02-07T08:34:03;47.97;;;23.55;;
44919;SDS011;30655;53.094;6.072;2023-02-07T08:36:30;44.45;;;22.40;;
44919;SDS011;30655;53.094;6.072;2023-02-07T08:38:56;48.35;;;22.45;;
44919;SDS011;30655;53.094;6.072;2023-02-07T08:41:23;42.95;;;22.42;;
44919;SDS011;30655;53.094;6.072;2023-02-07T08:43:51;43.33;;;22.52;;
44919;SDS011;30655;53.094;6.072;2023-02-07T08:46:18;45.92;;;22.25;;
44919;SDS011;30655;53.094;6.072;2023-02-07T08:48:46;53.70;;;23.00;;
44919;SDS011;30655;53.094;6.072;2023-02-07T08:51:13;38.45;;;22.13;;
44919;SDS011;30655;53.094;6.072;2023-02-07T08:53:40;49.70;;;23.00;;
44919;SDS011;30655;53.094;6.072;2023-02-07T08:56:07;35.72;;;21.73;;
44919;SDS011;30655;53.094;6.072;2023-02-07T08:58:34;40.60;;;21.33;;
44919;SDS011;30655;53.094;6.072;2023-02-07T09:01:03;45.10;;;21.23;;
44919;SDS011;30655;53.094;6.072;2023-02-07T09:03:31;38.95;;;22.77;;
44919;SDS011;30655;53.094;6.072;2023-02-07T09:06:00;44.55;;;21.45;;
44919;SDS011;30655;53.094;6.072;2023-02-07T09:08:27;38.70;;;21.45;;
44919;SDS011;30655;53.094;6.072;2023-02-07T09:10:54;40.97;;;22.13;;
44919;SDS011;30655;53.094;6.072;2023-02-07T09:13:21;35.47;;;21.35;;
44919;SDS011;30655;53.094;6.072;2023-02-07T09:15:51;33.20;;;19.95;;
44919;SDS011;30655;53.094;6.072;2023-02-07T09:18:21;33.00;;;19.70;;
44919;SDS011;30655;53.094;6.072;2023-02-07T09:20:47;38.90;;;20.98;;
44919;SDS011;30655;53.094;6.072;2023-02-07T09:23:14;40.45;;;21.05;;
44919;SDS011;30655;53.094;6.072;2023-02-07T09:25:43;43.60;;;21.10;;
44919;SDS011;30655;53.094;6.072;2023-02-07T09:28:10;38.05;;;22.17;;
44919;SDS011;30655;53.094;6.072;2023-02-07T09:30:38;36.78;;;22.15;;
44919;SDS011;30655;53.094;6.072;2023-02-07T09:33:06;32.03;;;20.95;;
44919;SDS011;30655;53.094;6.072;2023-02-07T09:35:36;38.20;;;22.20;;
44919;SDS011;30655;53.094;6.072;2023-02-07T09:38:03;38.80;;;22.00;;
44919;SDS011;30655;53.094;6.072;2023-02-07T09:40:31;33.25;;;20.60;;
44919;SDS011;30655;53.094;6.072;2023-02-07T09:43:02;38.00;;;21.33;;
44919;SDS011;30655;53.094;6.072;2023-02-07T09:45:38;40.80;;;20.75;;
44919;SDS011;30655;53.094;6.072;2023-02-07T09:48:11;37.65;;;21.95;;
44919;SDS011;30655;53.094;6.072;2023-02-07T09:50:44;42.45;;;23.33;;
44919;SDS011;30655;53.094;6.072;2023-02-07T09:53:16;42.70;;;21.73;;
44919;SDS011;30655;53.094;6.072;2023-02-07T09:55:49;39.05;;;22.73;;
44919;SDS011;30655;53.094;6.072;2023-02-07T09:58:24;38.72;;;22.35;;
44919;SDS011;30655;53.094;6.072;2023-02-07T10:00:59;41.65;;;22.42;;
44919;SDS011;30655;53.094;6.072;2023-02-07T10:03:30;40.45;;;23.13;;
44919;SDS011;30655;53.094;6.072;2023-02-07T10:06:00;43.75;;;22.50;;
44919;SDS011;30655;53.094;6.072;2023-02-07T10:08:50;43.17;;;22.23;;
44919;SDS011;30655;53.094;6.072;2023-02-07T10:11:24;41.70;;;22.10;;
44919;SDS011;30655;53.094;6.072;2023-02-07T10:14:08;41.25;;;22.95;;
44919;SDS011;30655;53.094;6.072;2023-02-07T10:16:53;47.78;;;23.73;;
44919;SDS011;30655;53.094;6.072;2023-02-07T10:19:33;37.42;;;22.58;;
44919;SDS011;30655;53.094;6.072;2023-02-07T10:22:13;42.45;;;23.52;;
44919;SDS011;30655;53.094;6.072;2023-02-07T10:24:53;44.80;;;23.13;;
44919;SDS011;30655;53.094;6.072;2023-02-07T10:27:35;50.72;;;24.45;;
44919;SDS011;30655;53.094;6.072;2023-02-07T10:30:07;50.67;;;25.33;;
44919;SDS011;30655;53.094;6.072;2023-02-07T10:32:41;47.47;;;25.10;;
44919;SDS011;30655;53.094;6.072;2023-02-07T10:35:14;42.90;;;24.75;;
44919;SDS011;30655;53.094;6.072;2023-02-07T10:37:50;46.10;;;24.92;;
44919;SDS011;30655;53.094;6.072;2023-02-07T10:40:25;45.55;;;25.70;;
44919;SDS011;30655;53.094;6.072;2023-02-07T10:42:57;44.17;;;25.25;;
44919;SDS011;30655;53.094;6.072;2023-02-07T10:45:28;45.13;;;24.38;;
44919;SDS011;30655;53.094;6.072;2023-02-07T10:47:55;45.20;;;24.15;;
44919;SDS011;30655;53.094;6.072;2023-02-07T10:50:25;51.78;;;24.05;;
44919;SDS011;30655;53.094;6.072;2023-02-07T10:52:57;41.45;;;24.10;;
44919;SDS011;30655;53.094;6.072;2023-02-07T10:55:36;55.63;;;24.88;;
44919;SDS011;30655;53.094;6.072;2023-02-07T10:58:05;50.17;;;23.90;;
44919;SDS011;30655;53.094;6.072;2023-02-07T11:00:51;48.80;;;24.80;;
44919;SDS011;30655;53.094;6.072;2023-02-07T11:03:23;41.20;;;23.65;;
44919;SDS011;30655;53.094;6.072;2023-02-07T11:05:55;44.05;;;24.30;;
44919;SDS011;30655;53.094;6.072;2023-02-07T11:08:26;47.97;;;24.33;;
44919;SDS011;30655;53.094;6.072;2023-02-07T11:10:54;51.50;;;26.00;;
44919;SDS011;30655;53.094;6.072;2023-02-07T11:13:22;45.88;;;24.00;;
44919;SDS011;30655;53.094;6.072;2023-02-07T11:15:54;44.47;;;24.13;;
44919;SDS011;30655;53.094;6.072;2023-02-07T11:18:25;40.85;;;23.45;;
44919;SDS011;30655;53.094;6.072;2023-02-07T11:20:59;46.70;;;24.90;;
44919;SDS011;30655;53.094;6.072;2023-02-07T11:23:28;45.50;;;25.20;;
44919;SDS011;30655;53.094;6.072;2023-02-07T11:25:54;47.47;;;24.67;;
44919;SDS011;30655;53.094;6.072;2023-02-07T11:28:23;44.78;;;24.27;;
44919;SDS011;30655;53.094;6.072;2023-02-07T11:30:54;43.72;;;21.92;;
44919;SDS011;30655;53.094;6.072;2023-02-07T11:33:26;41.65;;;24.05;;
44919;SDS011;30655;53.094;6.072;2023-02-07T11:36:02;42.03;;;24.13;;
44919;SDS011;30655;53.094;6.072;2023-02-07T11:38:32;40.22;;;23.17;;
44919;SDS011;30655;53.094;6.072;2023-02-07T11:41:15;42.03;;;23.23;;
44919;SDS011;30655;53.094;6.072;2023-02-07T11:43:51;39.00;;;22.50;;
44919;SDS011;30655;53.094;6.072;2023-02-07T11:46:20;40.72;;;23.42;;
44919;SDS011;30655;53.094;6.072;2023-02-07T11:48:51;36.67;;;22.80;;
44919;SDS011;30655;53.094;6.072;2023-02-07T11:51:24;36.50;;;22.23;;
44919;SDS011;30655;53.094;6.072;2023-02-07T11:53:59;43.75;;;23.08;;
44919;SDS011;30655;53.094;6.072;2023-02-07T11:56:31;37.08;;;22.88;;
44919;SDS011;30655;53.094;6.072;2023-02-07T11:59:03;36.40;;;21.13;;
44919;SDS011;30655;53.094;6.072;2023-02-07T12:01:33;41.90;;;22.75;;
44919;SDS011;30655;53.094;6.072;2023-02-07T12:04:02;39.08;;;21.30;;
44919;SDS011;30655;53.094;6.072;2023-02-07T12:06:37;38.15;;;22.00;;
44919;SDS011;30655;53.094;6.072;2023-02-07T12:09:15;33.50;;;22.13;;
44919;SDS011;30655;53.094;6.072;2023-02-07T12:11:49;39.30;;;22.83;;
44919;SDS011;30655;53.094;6.072;2023-02-07T12:14:22;43.30;;;22.45;;
44919;SDS011;30655;53.094;6.072;2023-02-07T12:16:57;35.25;;;20.13;;
44919;SDS011;30655;53.094;6.072;2023-02-07T12:19:29;37.03;;;20.95;;
44919;SDS011;30655;53.094;6.072;2023-02-07T12:22:00;36.97;;;21.15;;
44919;SDS011;30655;53.094;6.072;2023-02-07T12:24:36;44.33;;;22.42;;
44919;SDS011;30655;53.094;6.072;2023-02-07T12:27:10;34.15;;;21.77;;
44919;SDS011;30655;53.094;6.072;2023-02-07T12:29:48;39.53;;;22.27;;
44919;SDS011;30655;53.094;6.072;2023-02-07T12:32:25;35.45;;;20.95;;
44919;SDS011;30655;53.094;6.072;2023-02-07T12:34:59;38.83;;;22.75;;
44919;SDS011;30655;53.094;6.072;2023-02-07T12:37:35;37.53;;;22.40;;
44919;SDS011;30655;53.094;6.072;2023-02-07T12:40:12;34.42;;;20.80;;
44919;SDS011;30655;53.094;6.072;2023-02-07T12:42:45;29.90;;;19.88;;
44919;SDS011;30655;53.094;6.072;2023-02-07T12:45:21;34.90;;;19.70;;
44919;SDS011;30655;53.094;6.072;2023-02-07T12:48:05;28.83;;;19.17;;
44919;SDS011;30655;53.094;6.072;2023-02-07T12:50:54;25.30;;;17.92;;
44919;SDS011;30655;53.094;6.072;2023-02-07T12:53:36;23.20;;;17.08;;
44919;SDS011;30655;53.094;6.072;2023-02-07T12:56:26;28.52;;;18.15;;
44919;SDS011;30655;53.094;6.072;2023-02-07T12:59:07;21.38;;;15.35;;
44919;SDS011;30655;53.094;6.072;2023-02-07T13:01:43;25.58;;;16.20;;
44919;SDS011;30655;53.094;6.072;2023-02-07T13:04:23;21.33;;;16.55;;
44919;SDS011;30655;53.094;6.072;2023-02-07T13:07:11;21.00;;;14.95;;
44919;SDS011;30655;53.094;6.072;2023-02-07T13:09:48;20.58;;;14.63;;
44919;SDS011;30655;53.094;6.072;2023-02-07T13:12:23;19.27;;;14.93;;
44919;SDS011;30655;53.094;6.072;2023-02-07T13:14:59;19.23;;;14.65;;
44919;SDS011;30655;53.094;6.072;2023-02-07T13:17:39;22.88;;;14.60;;
44919;SDS011;30655;53.094;6.072;2023-02-07T13:20:17;17.85;;;14.18;;
44919;SDS011;30655;53.094;6.072;2023-02-07T13:22:55;17.07;;;13.90;;
44919;SDS011;30655;53.094;6.072;2023-02-07T13:25:26;18.00;;;13.52;;
44919;SDS011;30655;53.094;6.072;2023-02-07T13:27:58;21.17;;;14.18;;
44919;SDS011;30655;53.094;6.072;2023-02-07T13:30:30;17.73;;;13.48;;
44919;SDS011;30655;53.094;6.072;2023-02-07T13:32:59;22.17;;;13.68;;
44919;SDS011;30655;53.094;6.072;2023-02-07T13:35:31;19.45;;;12.93;;
44919;SDS011;30655;53.094;6.072;2023-02-07T13:38:06;19.25;;;13.20;;
44919;SDS011;30655;53.094;6.072;2023-02-07T13:40:40;15.73;;;13.10;;
44919;SDS011;30655;53.094;6.072;2023-02-07T13:43:19;18.60;;;13.35;;
44919;SDS011;30655;53.094;6.072;2023-02-07T13:45:58;18.27;;;13.07;;
44919;SDS011;30655;53.094;6.072;2023-02-07T13:48:34;18.73;;;13.40;;
44919;SDS011;30655;53.094;6.072;2023-02-07T13:51:09;18.38;;;12.93;;
44919;SDS011;30655;53.094;6.072;2023-02-07T13:53:49;15.68;;;12.23;;
44919;SDS011;30655;53.094;6.072;2023-02-07T13:56:29;21.83;;;12.18;;
44919;SDS011;30655;53.094;6.072;2023-02-07T13:59:01;18.20;;;12.45;;
44919;SDS011;30655;53.094;6.072;2023-02-07T14:01:28;15.48;;;12.35;;
44919;SDS011;30655;53.094;6.072;2023-02-07T14:04:00;18.60;;;12.13;;
44919;SDS011;30655;53.094;6.072;2023-02-07T14:06:30;20.70;;;13.13;;
44919;SDS011;30655;53.094;6.072;2023-02-07T14:09:03;19.48;;;13.75;;
44919;SDS011;30655;53.094;6.072;2023-02-07T14:11:36;21.25;;;13.18;;
44919;SDS011;30655;53.094;6.072;2023-02-07T14:14:15;18.40;;;13.18;;
44919;SDS011;30655;53.094;6.072;2023-02-07T14:16:50;20.48;;;13.52;;
44919;SDS011;30655;53.094;6.072;2023-02-07T14:22:18;24.55;;;13.25;;
44919;SDS011;30655;53.094;6.072;2023-02-07T14:24:48;15.55;;;12.75;;
44919;SDS011;30655;53.094;6.072;2023-02-07T14:27:38;19.65;;;12.10;;
44919;SDS011;30655;53.094;6.072;2023-02-07T14:30:18;20.98;;;12.40;;
44919;SDS011;30655;53.094;6.072;2023-02-07T14:33:08;15.60;;;11.65;;
44919;SDS011;30655;53.094;6.072;2023-02-07T14:35:43;16.65;;;10.88;;
44919;SDS011;30655;53.094;6.072;2023-02-07T14:38:28;13.20;;;9.75;;
44919;SDS011;30655;53.094;6.072;2023-02-07T14:41:00;11.63;;;9.97;;
44919;SDS011;30655;53.094;6.072;2023-02-07T14:43:41;12.00;;;10.23;;
44919;SDS011;30655;53.094;6.072;2023-02-07T14:46:25;15.57;;;10.70;;
44919;SDS011;30655;53.094;6.072;2023-02-07T14:49:00;12.68;;;10.27;;
44919;SDS011;30655;53.094;6.072;2023-02-07T14:51:30;10.65;;;9.52;;
44919;SDS011;30655;53.094;6.072;2023-02-07T14:54:11;12.35;;;9.30;;
44919;SDS011;30655;53.094;6.072;2023-02-07T14:56:51;25.27;;;9.95;;
44919;SDS011;30655;53.094;6.072;2023-02-07T14:59:31;14.52;;;9.80;;
44919;SDS011;30655;53.094;6.072;2023-02-07T15:05:10;13.07;;;9.30;;
44919;SDS011;30655;53.094;6.072;2023-02-07T15:10:35;12.07;;;9.90;;
44919;SDS011;30655;53.094;6.072;2023-02-07T15:13:05;13.88;;;9.82;;